createdAt,value
2019-04-20T00:01:50.502Z,12.60
2019-04-20T00:04:23.414Z,12.52
2019-04-20T00:06:48.525Z,12.54
2019-04-20T00:09:15.935Z,12.55
2019-04-20T00:11:50.771Z,12.37
2019-04-20T00:14:14.210Z,12.33
2019-04-20T00:16:35.781Z,12.34
2019-04-20T00:19:04.103Z,12.36
2019-04-20T00:21:42.760Z,12.30
2019-04-20T00:24:13.341Z,12.16
2019-04-20T00:27:07.474Z,12.19
2019-04-20T00:29:21.691Z,12.21
2019-04-20T00:31:45.779Z,12.23
2019-04-20T00:34:07.873Z,12.20
2019-04-20T00:36:26.275Z,12.26
2019-04-20T00:38:56.967Z,12.24
2019-04-20T00:41:22.394Z,12.24
2019-04-20T00:43:49.151Z,12.26
2019-04-20T00:46:21.878Z,12.29
2019-04-20T00:48:50.891Z,12.31
2019-04-20T00:51:39.472Z,12.32
2019-04-20T00:53:43.297Z,12.23
2019-04-20T00:56:07.448Z,12.18
2019-04-20T00:58:46.658Z,12.18
2019-04-20T01:01:20.247Z,12.15
2019-04-20T01:03:42.306Z,12.10
2019-04-20T01:06:23.445Z,12.04
2019-04-20T01:08:34.037Z,12.01
2019-04-20T01:11:01.050Z,12.04
2019-04-20T01:13:28.803Z,12.00
2019-04-20T01:16:03.071Z,11.93
2019-04-20T01:18:22.933Z,11.84
2019-04-20T01:20:49.390Z,11.80
2019-04-20T01:23:19.633Z,11.97
2019-04-20T01:25:45.429Z,11.89
2019-04-20T01:28:28.398Z,11.77
2019-04-20T01:30:44.630Z,11.77
2019-04-20T01:33:22.820Z,11.86
2019-04-20T01:35:50.910Z,11.88
2019-04-20T01:38:22.379Z,11.93
2019-04-20T01:40:29.585Z,11.84
2019-04-20T01:42:55.510Z,11.84
2019-04-20T01:45:27.455Z,11.83
2019-04-20T01:47:53.070Z,11.82
2019-04-20T01:50:23.064Z,11.82
2019-04-20T01:52:56.266Z,11.80
2019-04-20T01:55:33.310Z,11.73
2019-04-20T01:58:06.119Z,11.78
2019-04-20T02:00:29.479Z,11.85
2019-04-20T02:02:58.370Z,11.86
2019-04-20T02:05:25.991Z,11.85
2019-04-20T02:07:49.332Z,11.80
2019-04-20T02:10:16.571Z,11.82
2019-04-20T02:12:43.977Z,11.80
2019-04-20T02:15:22.190Z,11.75
2019-04-20T02:17:46.175Z,11.75
2019-04-20T02:20:27.720Z,11.75
2019-04-20T02:22:51.587Z,11.68
2019-04-20T02:25:03.513Z,11.67
2019-04-20T02:27:36.898Z,11.70
2019-04-20T02:30:30.899Z,11.81
2019-04-20T02:33:14.013Z,11.76
2019-04-20T02:35:36.678Z,11.74
2019-04-20T02:40:45.186Z,11.73
2019-04-20T02:43:09.520Z,11.78
2019-04-20T02:47:57.251Z,11.78
2019-04-20T02:50:22.476Z,11.72
2019-04-20T02:52:56.748Z,11.66
2019-04-20T02:55:14.463Z,11.62
2019-04-20T03:00:13.761Z,11.58
2019-04-20T03:02:23.778Z,11.58
2019-04-20T03:04:44.184Z,11.59
2019-04-20T03:07:22.031Z,11.59
2019-04-20T03:09:54.385Z,11.59
2019-04-20T03:12:23.676Z,11.63
2019-04-20T03:14:44.964Z,11.68
2019-04-20T03:17:21.633Z,11.62
2019-04-20T03:19:38.569Z,11.70
2019-04-20T03:22:13.500Z,11.63
2019-04-20T03:24:46.981Z,11.60
2019-04-20T03:27:09.872Z,11.54
2019-04-20T03:29:52.289Z,11.51
2019-04-20T03:37:28.059Z,11.57
2019-04-20T03:39:40.444Z,11.56
2019-04-20T03:41:56.658Z,11.49
2019-04-20T03:44:25.559Z,11.49
2019-04-20T03:46:57.242Z,11.46
2019-04-20T03:49:42.301Z,11.41
2019-04-20T03:52:26.176Z,11.42
2019-04-20T03:55:03.135Z,11.56
2019-04-20T03:57:45.919Z,11.45
2019-04-20T04:00:30.512Z,11.47
2019-04-20T04:05:44.369Z,11.44
2019-04-20T04:08:09.475Z,11.45
2019-04-20T04:10:36.399Z,11.47
2019-04-20T04:13:09.338Z,11.32
2019-04-20T04:15:42.710Z,11.46
2019-04-20T04:18:13.859Z,11.48
2019-04-20T04:20:43.355Z,11.39
2019-04-20T04:23:19.468Z,11.37
2019-04-20T04:25:50.042Z,11.40
2019-04-20T04:28:15.417Z,11.43
2019-04-20T04:30:40.169Z,11.31
2019-04-20T04:33:39.940Z,11.34
2019-04-20T04:35:34.633Z,11.31
2019-04-20T04:38:06.676Z,11.25
2019-04-20T04:40:42.728Z,11.25
2019-04-20T04:43:05.636Z,11.26
2019-04-20T04:45:15.943Z,11.15
2019-04-20T04:47:40.900Z,11.22
2019-04-20T04:50:14.226Z,11.28
2019-04-20T04:52:45.572Z,11.21
2019-04-20T04:55:19.971Z,11.26
2019-04-20T04:57:32.668Z,11.32
2019-04-20T04:59:59.450Z,11.37
2019-04-20T05:02:32.457Z,11.27
2019-04-20T05:05:17.756Z,11.20
2019-04-20T05:07:38.853Z,11.26
2019-04-20T05:09:54.966Z,11.37
2019-04-20T05:12:24.307Z,11.34
2019-04-20T05:14:58.081Z,11.42
2019-04-20T05:17:41.637Z,11.54
2019-04-20T05:20:03.634Z,11.60
2019-04-20T05:22:32.166Z,11.60
2019-04-20T05:25:04.680Z,11.70
2019-04-20T05:27:39.740Z,11.75
2019-04-20T05:29:50.775Z,11.77
2019-04-20T05:32:24.959Z,11.84
2019-04-20T05:35:05.024Z,11.89
2019-04-20T05:37:41.421Z,11.91
2019-04-20T05:40:04.786Z,11.95
2019-04-20T05:42:30.877Z,12.14
2019-04-20T05:45:03.287Z,12.18
2019-04-20T05:47:25.049Z,12.28
2019-04-20T05:49:46.845Z,12.31
2019-04-20T05:52:31.752Z,12.34
2019-04-20T05:54:46.788Z,12.43
2019-04-20T05:57:23.665Z,12.51
2019-04-20T05:59:45.011Z,12.56
2019-04-20T06:02:09.731Z,12.66
2019-04-20T06:04:55.638Z,12.76
2019-04-20T06:07:09.181Z,12.78
2019-04-20T06:09:33.501Z,12.99
2019-04-20T06:12:17.870Z,13.13
2019-04-20T06:14:41.592Z,13.14
2019-04-20T06:17:15.890Z,13.26
2019-04-20T06:19:39.569Z,13.37
2019-04-20T06:22:24.698Z,13.41
2019-04-20T06:24:55.270Z,13.56
2019-04-20T06:27:08.252Z,13.67
2019-04-20T06:29:34.794Z,13.76
2019-04-20T06:32:12.946Z,13.90
2019-04-20T06:34:39.951Z,13.99
2019-04-20T06:36:57.375Z,14.12
2019-04-20T06:39:32.425Z,14.22
2019-04-20T06:51:53.210Z,14.80
2019-04-20T06:54:10.479Z,14.82
2019-04-20T06:56:48.584Z,15.01
2019-04-20T06:59:27.684Z,15.13
2019-04-20T07:01:56.913Z,15.25
2019-04-20T07:04:34.860Z,15.22
2019-04-20T07:07:07.047Z,15.33
2019-04-20T07:09:15.291Z,15.49
2019-04-20T07:11:41.087Z,15.53
2019-04-20T07:13:51.997Z,15.54
2019-04-20T07:16:36.296Z,15.63
2019-04-20T07:19:07.871Z,15.71
2019-04-20T07:22:10.502Z,15.79
2019-04-20T07:24:30.578Z,15.91
2019-04-20T07:26:58.879Z,15.98
2019-04-20T07:29:26.038Z,15.91
2019-04-20T07:31:45.900Z,16.29
2019-04-20T07:34:16.843Z,16.35
2019-04-20T07:36:51.726Z,16.51
2019-04-20T07:39:13.289Z,16.64
2019-04-20T07:42:00.375Z,16.73
2019-04-20T07:44:10.788Z,16.77
2019-04-20T07:46:47.167Z,16.82
2019-04-20T07:49:01.645Z,16.89
2019-04-20T07:51:18.251Z,16.92
2019-04-20T07:53:59.499Z,17.06
2019-04-20T07:56:34.966Z,17.08
2019-04-20T07:58:41.109Z,17.10
2019-04-20T08:01:30.161Z,17.21
2019-04-20T08:03:55.570Z,17.29
2019-04-20T08:06:15.456Z,17.35
2019-04-20T08:08:56.068Z,17.57
2019-04-20T08:11:23.175Z,17.46
2019-04-20T08:13:51.289Z,17.60
2019-04-20T08:16:29.257Z,17.78
2019-04-20T08:18:52.604Z,17.71
2019-04-20T08:21:16.215Z,17.52
2019-04-20T08:23:44.224Z,17.41
2019-04-20T08:26:03.943Z,17.92
2019-04-20T08:28:38.465Z,17.85
2019-04-20T08:31:24.704Z,17.92
2019-04-20T08:34:15.155Z,18.01
2019-04-20T08:36:33.263Z,17.76
2019-04-20T08:39:16.947Z,18.10
2019-04-20T08:41:20.725Z,18.44
2019-04-20T08:44:30.943Z,18.60
2019-04-20T08:46:23.409Z,18.19
2019-04-20T08:48:52.272Z,18.31
2019-04-20T08:51:12.105Z,18.11
2019-04-20T08:53:44.650Z,18.49
2019-04-20T08:56:05.864Z,18.41
2019-04-20T08:58:20.350Z,18.48
2019-04-20T09:00:53.623Z,18.41
2019-04-20T09:03:24.317Z,18.50
2019-04-20T09:05:52.292Z,18.67
2019-04-20T09:08:17.950Z,18.44
2019-04-20T09:10:54.153Z,18.51
2019-04-20T09:13:18.673Z,18.56
2019-04-20T09:15:34.180Z,18.77
2019-04-20T09:18:15.147Z,18.92
2019-04-20T09:20:44.682Z,18.81
2019-04-20T09:23:18.600Z,18.74
2019-04-20T09:28:20.096Z,18.65
2019-04-20T09:31:09.201Z,18.42
2019-04-20T09:33:51.696Z,18.96
2019-04-20T09:36:25.263Z,19.22
2019-04-20T09:39:06.136Z,19.49
2019-04-20T09:41:56.061Z,19.46
2019-04-20T09:43:58.387Z,19.35
2019-04-20T09:46:24.675Z,19.71
2019-04-20T09:48:57.439Z,19.63
2019-04-20T09:51:37.839Z,19.66
2019-04-20T09:53:55.028Z,19.22
2019-04-20T09:56:29.686Z,19.35
2019-04-20T09:59:01.106Z,19.68
2019-04-20T10:01:19.140Z,19.67
2019-04-20T10:03:36.720Z,19.66
2019-04-20T10:06:03.390Z,19.81
2019-04-20T10:08:32.802Z,20.14
2019-04-20T10:10:57.152Z,19.76
2019-04-20T10:13:23.162Z,19.86
2019-04-20T10:15:50.009Z,19.90
2019-04-20T10:18:15.933Z,20.28
2019-04-20T10:20:43.439Z,20.59
2019-04-20T10:23:09.443Z,20.54
2019-04-20T10:25:36.304Z,20.38
2019-04-20T10:28:03.356Z,20.78
2019-04-20T10:31:10.673Z,21.41
2019-04-20T10:33:37.612Z,21.18
2019-04-20T10:36:05.745Z,20.66
2019-04-20T10:38:34.289Z,20.76
2019-04-20T10:41:08.246Z,20.76
2019-04-20T10:43:28.129Z,21.02
2019-04-20T10:45:55.044Z,21.03
2019-04-20T10:48:21.488Z,20.97
2019-04-20T10:50:47.376Z,21.03
2019-04-20T10:53:14.083Z,21.06
2019-04-20T10:55:40.131Z,20.97
2019-04-20T10:58:07.353Z,21.09
2019-04-20T11:00:39.710Z,21.13
2019-04-20T11:03:06.001Z,21.22
2019-04-20T11:05:32.794Z,21.44
2019-04-20T11:08:00.608Z,20.99
2019-04-20T11:10:29.319Z,21.23
2019-04-20T11:12:54.291Z,21.22
2019-04-20T11:15:20.903Z,21.28
2019-04-20T11:17:47.090Z,20.96
2019-04-20T11:20:13.346Z,21.19
2019-04-20T11:22:40.166Z,20.89
2019-04-20T11:25:06.223Z,21.55
2019-04-20T11:27:32.264Z,21.51
2019-04-20T11:29:58.365Z,22.06
2019-04-20T11:32:24.487Z,22.22
2019-04-20T11:34:51.237Z,22.18
2019-04-20T11:37:17.344Z,22.28
2019-04-20T11:39:43.199Z,22.33
2019-04-20T11:42:09.979Z,21.70
2019-04-20T11:44:36.585Z,21.87
2019-04-20T11:47:03.369Z,22.03
2019-04-20T11:49:29.439Z,22.03
2019-04-20T11:51:55.477Z,22.43
2019-04-20T11:54:22.086Z,22.78
2019-04-20T11:56:49.073Z,22.53
2019-04-20T11:59:15.176Z,22.48
2019-04-20T12:01:54.768Z,22.29
2019-04-20T12:04:34.075Z,22.42
2019-04-20T12:06:46.885Z,22.81
2019-04-20T12:09:12.998Z,23.07
2019-04-20T12:11:53.313Z,23.07
2019-04-20T12:14:06.967Z,22.70
2019-04-20T12:16:32.947Z,23.25
2019-04-20T12:19:02.245Z,23.25
2019-04-20T12:21:28.704Z,23.61
2019-04-20T12:23:56.100Z,23.34
2019-04-20T12:26:22.725Z,23.23
2019-04-20T12:28:49.653Z,23.74
2019-04-20T12:31:20.500Z,24.08
2019-04-20T12:33:44.327Z,24.19
2019-04-20T12:36:12.150Z,24.06
2019-04-20T12:38:39.148Z,24.05
2019-04-20T12:41:07.492Z,23.82
2019-04-20T12:43:33.954Z,24.49
2019-04-20T12:46:00.062Z,24.31
2019-04-20T12:48:26.124Z,24.88
2019-04-20T12:50:53.314Z,25.32
2019-04-20T12:53:20.457Z,25.88
2019-04-20T12:55:46.655Z,26.88
2019-04-20T12:58:12.666Z,26.36
2019-04-20T13:00:41.696Z,26.55
2019-04-20T13:03:07.682Z,26.62
2019-04-20T13:05:33.870Z,30.23
2019-04-20T13:08:02.367Z,31.38
2019-04-20T13:10:27.892Z,31.77
2019-04-20T13:12:56.426Z,31.26
2019-04-20T13:15:32.430Z,32.13
2019-04-20T13:17:59.396Z,30.07
2019-04-20T13:20:25.839Z,34.23
2019-04-20T13:22:52.922Z,31.18
2019-04-20T13:25:19.103Z,31.82
2019-04-20T13:27:45.294Z,33.21
2019-04-20T13:30:11.627Z,29.98
2019-04-20T13:32:38.115Z,32.35
2019-04-20T13:35:05.942Z,32.05
2019-04-20T13:37:31.941Z,31.67
2019-04-20T13:39:58.668Z,33.78
2019-04-20T13:42:28.224Z,29.28
2019-04-20T13:44:52.841Z,29.39
2019-04-20T13:47:19.182Z,31.95
2019-04-20T13:49:45.284Z,29.59
2019-04-20T13:52:11.176Z,32.75
2019-04-20T13:54:37.997Z,29.19
2019-04-20T13:57:06.506Z,32.45
2019-04-20T13:59:35.173Z,34.39
2019-04-20T14:02:04.410Z,30.55
2019-04-20T14:04:32.722Z,31.29
2019-04-20T14:06:59.520Z,30.81
2019-04-20T14:09:25.689Z,30.41
2019-04-20T14:11:51.881Z,32.89
2019-04-20T14:14:19.212Z,33.61
2019-04-20T14:16:45.489Z,32.65
2019-04-20T14:19:11.593Z,32.47
2019-04-20T14:21:38.455Z,36.50
2019-04-20T14:24:04.772Z,35.59
2019-04-20T14:26:30.886Z,32.99
2019-04-20T14:28:56.857Z,32.26
2019-04-20T14:31:23.795Z,33.20
2019-04-20T14:33:50.844Z,32.72
2019-04-20T14:36:16.983Z,33.06
2019-04-20T14:38:47.008Z,32.97
2019-04-20T14:41:12.878Z,31.81
2019-04-20T14:43:39.922Z,36.15
2019-04-20T14:46:06.071Z,34.35
2019-04-20T14:48:32.090Z,32.76
2019-04-20T14:50:59.278Z,32.16
2019-04-20T14:53:25.550Z,32.11
2019-04-20T14:55:51.475Z,32.01
2019-04-20T14:58:38.378Z,32.86
2019-04-20T15:01:06.790Z,33.31
2019-04-20T15:03:38.690Z,32.06
2019-04-20T15:06:07.348Z,31.74
2019-04-20T15:08:34.569Z,30.06
2019-04-20T15:11:01.004Z,37.80
2019-04-20T15:13:28.760Z,40.07
2019-04-20T15:15:55.067Z,38.82
2019-04-20T15:18:23.806Z,39.32
2019-04-20T15:20:51.689Z,41.10
2019-04-20T15:23:19.624Z,39.27
2019-04-20T15:25:46.470Z,36.06
2019-04-20T15:28:12.437Z,38.36
2019-04-20T15:30:38.471Z,38.89
2019-04-20T15:33:05.141Z,38.21
2019-04-20T15:35:31.288Z,36.68
2019-04-20T15:37:57.351Z,38.26
2019-04-20T15:40:23.546Z,38.53
2019-04-20T15:42:58.918Z,38.17
2019-04-20T15:45:18.933Z,38.76
2019-04-20T15:47:45.867Z,38.61
2019-04-20T15:50:12.226Z,41.48
2019-04-20T15:52:43.218Z,41.44
2019-04-20T15:55:14.341Z,39.26
2019-04-20T15:57:34.909Z,40.56
2019-04-20T16:00:02.548Z,40.99
2019-04-20T16:02:47.353Z,36.46
2019-04-20T16:05:18.726Z,39.56
2019-04-20T16:07:52.448Z,38.98
2019-04-20T16:10:12.955Z,39.26
2019-04-20T16:12:38.940Z,38.50
2019-04-20T16:15:07.334Z,38.75
2019-04-20T16:17:39.082Z,37.61
2019-04-20T16:20:08.193Z,36.96
2019-04-20T16:22:30.935Z,36.17
2019-04-20T16:25:01.618Z,37.94
2019-04-20T16:27:29.758Z,37.41
2019-04-20T16:29:55.901Z,39.57
2019-04-20T16:32:22.634Z,38.66
2019-04-20T16:34:48.705Z,36.41
2019-04-20T16:37:14.839Z,33.87
2019-04-20T16:39:40.841Z,34.55
2019-04-20T16:42:08.996Z,33.98
2019-04-20T16:44:35.542Z,33.81
2019-04-20T16:47:01.729Z,32.52
2019-04-20T16:49:28.789Z,30.39
2019-04-20T16:51:55.037Z,30.95
2019-04-20T16:54:25.820Z,30.18
2019-04-20T16:56:52.959Z,30.75
2019-04-20T16:59:20.819Z,30.24
2019-04-20T17:01:48.428Z,29.21
2019-04-20T17:04:19.112Z,28.34
2019-04-20T17:07:02.459Z,27.88
2019-04-20T17:09:29.223Z,27.67
2019-04-20T17:11:55.263Z,27.12
2019-04-20T17:14:23.737Z,26.88
2019-04-20T17:16:49.421Z,26.72
2019-04-20T17:19:15.618Z,26.74
2019-04-20T17:21:42.413Z,26.39
2019-04-20T17:24:09.103Z,26.01
2019-04-20T17:26:52.926Z,25.65
2019-04-20T17:29:22.089Z,25.30
2019-04-20T17:31:51.284Z,24.99
2019-04-20T17:34:39.028Z,24.83
2019-04-20T17:36:46.516Z,24.77
2019-04-20T17:39:25.295Z,24.66
2019-04-20T17:42:00.538Z,24.73
2019-04-20T17:44:24.777Z,24.53
2019-04-20T17:46:48.030Z,24.44
2019-04-20T17:49:19.465Z,24.17
2019-04-20T17:51:59.247Z,24.04
2019-04-20T17:54:06.387Z,23.57
2019-04-20T17:56:31.482Z,23.57
2019-04-20T17:58:58.536Z,23.51
2019-04-20T18:01:57.910Z,23.42
2019-04-20T18:04:48.766Z,23.25
2019-04-20T18:06:57.914Z,22.97
2019-04-20T18:09:40.167Z,22.67
2019-04-20T18:11:49.086Z,22.59
2019-04-20T18:14:28.573Z,22.45
2019-04-20T18:17:13.754Z,22.46
2019-04-20T18:19:34.602Z,22.38
2019-04-20T18:22:01.913Z,22.19
2019-04-20T18:24:50.720Z,22.12
2019-04-20T18:27:16.224Z,22.02
2019-04-20T18:29:42.796Z,21.86
2019-04-20T18:32:01.767Z,21.79
2019-04-20T18:34:36.348Z,21.74
2019-04-20T18:37:08.615Z,21.70
2019-04-20T18:39:38.699Z,21.69
2019-04-20T18:42:10.141Z,21.72
2019-04-20T18:44:30.442Z,21.52
2019-04-20T18:47:18.152Z,21.54
2019-04-20T18:49:36.109Z,21.50
2019-04-20T18:51:51.633Z,21.57
2019-04-20T18:54:22.199Z,21.52
2019-04-20T18:56:50.370Z,21.61
2019-04-20T18:59:14.500Z,21.60
2019-04-20T19:01:42.901Z,21.78
2019-04-20T19:04:09.976Z,21.47
2019-04-20T19:06:36.030Z,21.41
2019-04-20T19:09:04.966Z,21.11
2019-04-20T19:11:31.019Z,21.34
2019-04-20T19:14:23.641Z,21.23
2019-04-20T19:16:56.829Z,21.04
2019-04-20T19:19:27.049Z,20.87
2019-04-20T19:21:43.741Z,20.75
2019-04-20T19:24:14.239Z,20.79
2019-04-20T19:26:38.523Z,20.45
2019-04-20T19:29:14.013Z,20.50
2019-04-20T19:31:52.531Z,20.26
2019-04-20T19:34:19.032Z,20.27
2019-04-20T19:36:36.933Z,20.19
2019-04-20T19:39:17.234Z,20.23
2019-04-20T19:41:38.995Z,20.12
2019-04-20T19:44:07.269Z,20.10
2019-04-20T19:48:59.569Z,20.02
2019-04-20T19:51:41.983Z,19.88
2019-04-20T19:54:06.609Z,19.74
2019-04-20T19:56:33.649Z,19.67
2019-04-20T19:58:57.522Z,19.69
2019-04-20T20:01:11.529Z,19.69
2019-04-20T20:03:37.810Z,19.79
2019-04-20T20:06:03.936Z,19.58
2019-04-20T20:08:34.723Z,19.41
2019-04-20T20:11:00.982Z,19.40
2019-04-20T20:13:33.249Z,19.38
2019-04-20T20:16:04.492Z,19.18
2019-04-20T20:18:35.373Z,18.99
2019-04-20T20:21:04.798Z,19.00
2019-04-20T20:23:21.380Z,18.80
2019-04-20T20:25:49.646Z,18.92
2019-04-20T20:28:29.895Z,18.93
2019-04-20T20:30:56.979Z,18.91
2019-04-20T20:33:27.795Z,18.86
2019-04-20T20:35:47.506Z,18.73
2019-04-20T20:38:16.778Z,18.64
2019-04-20T20:40:38.530Z,18.50
2019-04-20T20:43:14.435Z,18.44
2019-04-20T20:45:36.703Z,18.38
2019-04-20T20:48:18.480Z,18.43
2019-04-20T20:50:58.751Z,18.48
2019-04-20T20:53:06.387Z,18.30
2019-04-20T20:55:30.851Z,18.38
2019-04-20T20:58:00.618Z,18.29
2019-04-20T21:00:28.009Z,18.31
2019-04-20T21:02:53.791Z,18.20
2019-04-20T21:05:15.463Z,18.13
2019-04-20T21:07:42.735Z,18.25
2019-04-20T21:10:10.364Z,18.19
2019-04-20T21:12:45.401Z,18.14
2019-04-20T21:15:12.376Z,18.07
2019-04-20T21:17:47.630Z,17.96
2019-04-20T21:20:22.442Z,17.89
2019-04-20T21:22:54.485Z,17.88
2019-04-20T21:25:13.016Z,17.87
2019-04-20T21:27:39.090Z,17.69
2019-04-20T21:30:10.905Z,17.62
2019-04-20T21:32:39.703Z,17.67
2019-04-20T21:35:06.459Z,17.54
2019-04-20T21:37:29.082Z,17.43
2019-04-20T21:39:59.817Z,17.41
2019-04-20T21:42:26.707Z,17.46
2019-04-20T21:44:57.621Z,17.43
2019-04-20T21:47:23.794Z,17.40
2019-04-20T21:49:57.976Z,17.36
2019-04-20T21:52:23.339Z,17.27
2019-04-20T21:54:42.856Z,17.34
2019-04-20T21:57:11.125Z,17.34
2019-04-20T21:59:43.245Z,17.23
2019-04-20T22:02:11.662Z,17.11
2019-04-20T22:04:33.540Z,17.09
2019-04-20T22:07:00.456Z,17.03
2019-04-20T22:09:34.558Z,16.99
2019-04-20T22:11:54.293Z,17.00
2019-04-20T22:14:24.323Z,17.01
2019-04-20T22:16:52.027Z,16.94
2019-04-20T22:19:27.429Z,16.93
2019-04-20T22:21:58.448Z,16.83
2019-04-20T22:24:28.296Z,16.77
2019-04-20T22:26:50.329Z,16.65
2019-04-20T22:29:07.994Z,16.62
2019-04-20T22:31:34.083Z,16.59
2019-04-20T22:34:06.234Z,16.56
2019-04-20T22:36:33.903Z,16.48
2019-04-20T22:39:11.699Z,16.26
2019-04-20T22:41:40.730Z,16.31
2019-04-20T22:44:12.412Z,16.25
2019-04-20T22:46:37.705Z,16.22
2019-04-20T22:49:20.453Z,16.27
2019-04-20T22:51:44.008Z,16.24
2019-04-20T22:54:18.821Z,16.26
2019-04-20T22:56:39.053Z,16.23
2019-04-20T22:59:02.236Z,16.15
2019-04-20T23:01:35.059Z,16.16
2019-04-20T23:03:52.688Z,16.00
2019-04-20T23:06:18.848Z,15.93
2019-04-20T23:08:47.305Z,16.03
2019-04-20T23:11:18.000Z,15.96
2019-04-20T23:13:43.674Z,15.88
2019-04-20T23:16:09.276Z,15.89
2019-04-20T23:18:36.090Z,15.82
2019-04-20T23:21:07.097Z,15.79
2019-04-20T23:23:30.979Z,15.79
2019-04-20T23:25:58.870Z,15.66
2019-04-20T23:28:24.741Z,15.62
2019-04-20T23:30:51.909Z,15.65
2019-04-20T23:33:18.565Z,15.58
2019-04-20T23:35:49.893Z,15.49
2019-04-20T23:38:16.456Z,15.40
2019-04-20T23:40:41.679Z,15.47
2019-04-20T23:43:29.040Z,15.41
2019-04-20T23:46:17.799Z,15.31
2019-04-20T23:48:52.080Z,15.32
2019-04-20T23:51:40.722Z,15.25
2019-04-20T23:53:55.526Z,15.34
2019-04-20T23:56:17.473Z,15.35
2019-04-20T23:58:47.680Z,15.34
